createdAt,value
2018-08-18T00:00:02.387Z,16.9
2018-08-18T00:15:02.716Z,16.8
2018-08-18T00:30:03.124Z,16.8
2018-08-18T00:45:02.433Z,16.7
2018-08-18T01:00:02.757Z,16.6
2018-08-18T01:15:03.132Z,16.6
2018-08-18T01:30:02.610Z,16.4
2018-08-18T01:45:02.957Z,16.4
2018-08-18T02:00:03.303Z,16.3
2018-08-18T02:15:02.623Z,16.2
2018-08-18T02:30:03.007Z,16.2
2018-08-18T02:45:02.355Z,16.1
2018-08-18T03:00:02.696Z,16.1
2018-08-18T03:15:03.010Z,16
2018-08-18T03:30:02.450Z,15.9
2018-08-18T03:45:02.775Z,15.9
2018-08-18T04:00:03.101Z,15.8
2018-08-18T04:15:02.428Z,15.8
2018-08-18T04:30:02.808Z,15.8
2018-08-18T04:45:03.140Z,15.7
2018-08-18T05:00:02.466Z,15.7
2018-08-18T05:15:02.801Z,15.6
2018-08-18T05:30:03.199Z,15.6
2018-08-18T05:45:02.479Z,15.6
2018-08-18T06:00:02.798Z,15.6
2018-08-18T06:15:03.134Z,15.6
2018-08-18T06:30:02.632Z,15.6
2018-08-18T06:45:02.939Z,15.6
2018-08-18T07:00:03.288Z,15.5
2018-08-18T07:15:02.616Z,15.6
2018-08-18T07:30:03.006Z,15.6
2018-08-18T07:45:02.310Z,15.6
2018-08-18T08:00:02.681Z,15.7
2018-08-18T08:15:03.078Z,15.7
2018-08-18T08:30:02.502Z,15.8
2018-08-18T08:45:02.815Z,15.8
2018-08-18T09:00:03.128Z,15.9
2018-08-18T09:15:02.538Z,15.9
2018-08-18T09:30:02.911Z,16.1
2018-08-18T09:45:03.225Z,16.1
2018-08-18T10:00:02.553Z,16.2
2018-08-18T10:15:02.892Z,16.3
2018-08-18T10:30:02.304Z,16.4
2018-08-18T10:45:02.625Z,16.5
2018-08-18T11:00:02.926Z,16.6
2018-08-18T11:15:03.277Z,16.7
2018-08-18T11:30:02.664Z,16.8
2018-08-18T11:45:03.027Z,16.9
2018-08-18T12:00:02.334Z,17
2018-08-18T12:15:02.681Z,17.1
2018-08-18T12:30:03.086Z,17.2
2018-08-18T12:45:02.510Z,17.3
2018-08-18T13:00:02.831Z,17.4
2018-08-18T13:15:03.138Z,17.5
2018-08-18T13:30:02.538Z,17.6
2018-08-18T13:45:02.822Z,17.7
2018-08-18T14:00:03.164Z,17.8
2018-08-18T14:15:02.675Z,17.8
2018-08-18T14:30:03.083Z,17.9
2018-08-18T14:45:02.420Z,17.9
2018-08-18T15:00:02.749Z,18
2018-08-18T15:15:03.076Z,18.1
2018-08-18T15:30:02.515Z,18.1
2018-08-18T15:45:02.810Z,18.1
2018-08-18T16:00:03.121Z,18.2
2018-08-18T16:15:02.403Z,18.2
2018-08-18T16:30:02.864Z,18.2
2018-08-18T16:45:03.201Z,18.2
2018-08-18T17:00:02.524Z,18.2
2018-08-18T17:15:02.874Z,18.2
2018-08-18T17:30:03.332Z,18.2
2018-08-18T17:45:02.663Z,18.2
2018-08-18T18:00:03.043Z,18.2
2018-08-18T18:15:02.379Z,18.2
2018-08-18T18:30:02.781Z,18.2
2018-08-18T18:45:03.133Z,18.2
2018-08-18T19:00:02.556Z,18.2
2018-08-18T19:15:02.993Z,18.2
2018-08-18T19:30:02.392Z,18.2
2018-08-18T19:45:02.715Z,18.2
2018-08-18T20:00:03.019Z,18.2
2018-08-18T20:15:02.324Z,18.1
2018-08-18T20:30:02.710Z,18.1
2018-08-18T20:45:02.997Z,18.1
2018-08-18T21:00:02.357Z,18.1
2018-08-18T21:15:02.676Z,18.1
2018-08-18T21:30:03.071Z,18
2018-08-18T21:45:02.401Z,17.9
2018-08-18T22:00:02.715Z,17.9
2018-08-18T22:15:03.034Z,17.9
2018-08-18T22:30:02.399Z,17.8
2018-08-18T22:45:02.720Z,17.8
2018-08-18T23:00:03.064Z,17.8
2018-08-18T23:15:02.388Z,17.6
2018-08-18T23:30:02.789Z,17.6
2018-08-18T23:45:03.123Z,17.6
